Bw Arctic — 3EDI6 — position and weather

sailwx.info

Track history (hours):
 
Tides and Currents Weather Stations Pressure Air Temp Water Temp Dewpoint Dewpoint Depression Visibility Wind Speed Wind Dir Waves Ship Positions

Bw Arctic

Last reported at 2016-Feb-04 07:00 UTC. Time now 2016-Feb-09 13:54 UTC.
Position N 17°24' E 118°06'.

Length 292 m; beam 48 m; draft 17.2 m.

Type: Cargo ship. MMSI: 371579000.

Wind from 360 at 18 knots

Waves 1.0 meters (3 feet), 3 second period

Barometer 1013.0 mb
Air temperature 26.0 ° C
Visibility: greater than 5.4 NM
Water temperature 25.0 ° C

Date/timePositionNaut miles runAvg speedWind from/ knotsBaromVisibWave heightAir tempDewpointWater temp
2016-Feb-04 07:00N 17°24' E 118°06'54411.3 360 / 181013.0 5.4 1.026.0 25.0
2016-Feb-02 07:00N 25°24' E 122°42'35811.0 020 / 201026.8 5.4 2.514.0 25.0
2016-Jan-31 22:27N 31°18' E 121°44'1 0.3
2016-Jan-31 20:23N 31°19' E 121°44'3 3.3
2016-Jan-31 19:31N 31°20' E 121°41'4 4.0
2016-Jan-31 18:33N 31°22' E 121°37'6 5.5
2016-Jan-31 17:33N 31°25' E 121°31'7 7.2
2016-Jan-31 16:33N 31°29' E 121°25'1 1.1
2016-Jan-31 15:32N 31°30' E 121°23'0 0.0
2016-Jan-31 14:32N 31°30' E 121°23'0 0.0
2016-Jan-31 13:26N 31°30' E 121°23'0 0.0
2016-Jan-31 12:32N 31°30' E 121°23'0 0.0
2016-Jan-31 11:32N 31°30' E 121°23'0 0.0
2016-Jan-31 10:32N 31°30' E 121°23'0 0.0
2016-Jan-31 09:29N 31°30' E 121°23'0 0.0
2016-Jan-31 08:32N 31°30' E 121°23'0 0.0
2016-Jan-31 07:32N 31°30' E 121°23'0 0.0
2016-Jan-31 06:32N 31°30' E 121°23'0 0.0
2016-Jan-31 05:32N 31°30' E 121°23'0 0.0
2016-Jan-31 04:32N 31°30' E 121°23'0 0.0
2016-Jan-31 03:32N 31°30' E 121°23'0 0.0
2016-Jan-31 02:32N 31°30' E 121°23'0 0.0
2016-Jan-31 01:32N 31°30' E 121°23'0 0.0
2016-Jan-31 00:26N 31°30' E 121°23'0 0.0
2016-Jan-30 23:32N 31°30' E 121°23'0 0.0
2016-Jan-30 22:32N 31°30' E 121°23'0 0.0
2016-Jan-30 21:32N 31°30' E 121°23'0 0.0
2016-Jan-30 20:32N 31°30' E 121°23'0 0.0
2016-Jan-30 19:32N 31°30' E 121°23'0 0.0
2016-Jan-30 18:29N 31°30' E 121°23'0 0.0
2016-Jan-30 17:29N 31°30' E 121°23'0 0.0
2016-Jan-30 16:32N 31°30' E 121°23'0 0.0
2016-Jan-30 15:32N 31°30' E 121°23'0 0.0
2016-Jan-30 14:32N 31°30' E 121°23'0 0.0
2016-Jan-30 13:32N 31°30' E 121°23'0 0.0
2016-Jan-30 12:32N 31°30' E 121°23'0 0.0
2016-Jan-30 11:32N 31°30' E 121°23'0 0.0
2016-Jan-30 10:32N 31°30' E 121°23'0 0.0
2016-Jan-30 09:32N 31°30' E 121°23'0 0.0
2016-Jan-30 08:32N 31°30' E 121°23'0 0.0
2016-Jan-30 07:32N 31°30' E 121°23'0 0.0
2016-Jan-30 06:32N 31°30' E 121°23'0 0.0
2016-Jan-30 05:29N 31°30' E 121°23'0 0.0
2016-Jan-30 04:29N 31°30' E 121°23'0 0.0
2016-Jan-30 03:32N 31°30' E 121°23'0 0.0
2016-Jan-30 02:32N 31°30' E 121°23'0 0.0
2016-Jan-30 01:32N 31°30' E 121°23'0 0.0
2016-Jan-30 00:32N 31°30' E 121°23'0 0.0
2016-Jan-29 23:32N 31°30' E 121°23'0 0.0
2016-Jan-29 22:32N 31°30' E 121°23'0 0.0
2016-Jan-29 21:32N 31°30' E 121°23'0 0.0
2016-Jan-29 20:32N 31°30' E 121°23'0 0.0
2016-Jan-29 19:32N 31°30' E 121°23'0 0.0
2016-Jan-29 18:32N 31°30' E 121°23'0 0.0
2016-Jan-29 17:32N 31°30' E 121°23'0 0.0
2016-Jan-29 16:32N 31°30' E 121°23'0 0.0
2016-Jan-29 15:32N 31°30' E 121°23'0 0.0
2016-Jan-29 14:32N 31°30' E 121°23'0 0.0
2016-Jan-29 13:32N 31°30' E 121°23'0 0.0
2016-Jan-29 12:20N 31°30' E 121°23'0 0.0
2016-Jan-29 11:32N 31°30' E 121°23'0 0.0
2016-Jan-29 10:32N 31°30' E 121°23'0 0.0
2016-Jan-29 09:33N 31°30' E 121°23'2 1.9
2016-Jan-29 08:33N 31°29' E 121°25'8 7.8
2016-Jan-29 07:32N 31°24' E 121°33'  
Track history (hours):
 
Tides and Currents Weather Stations Pressure Air Temp Water Temp Dewpoint Dewpoint Depression Visibility Wind Speed Wind Dir Waves Ship Positions

Bw Arctic

Last reported at 2016-Feb-04 07:00 UTC. Time now 2016-Feb-09 13:54 UTC.
Position N 17°24' E 118°06'.

Length 292 m; beam 48 m; draft 17.2 m.

Type: Cargo ship. MMSI: 371579000.

Wind from 360 at 18 knots

Waves 1.0 meters (3 feet), 3 second period

Barometer 1013.0 mb
Air temperature 26.0 ° C
Visibility: greater than 5.4 NM
Water temperature 25.0 ° C

Date/timePositionNaut miles runAvg speedWind from/ knotsBaromVisibWave heightAir tempDewpointWater temp
2016-Feb-04 07:00N 17°24' E 118°06'54411.3 360 / 181013.0 5.4 1.026.0 25.0
2016-Feb-02 07:00N 25°24' E 122°42'35811.0 020 / 201026.8 5.4 2.514.0 25.0
2016-Jan-31 22:27N 31°18' E 121°44'1 0.3
2016-Jan-31 20:23N 31°19' E 121°44'3 3.3
2016-Jan-31 19:31N 31°20' E 121°41'4 4.0
2016-Jan-31 18:33N 31°22' E 121°37'6 5.5
2016-Jan-31 17:33N 31°25' E 121°31'7 7.2
2016-Jan-31 16:33N 31°29' E 121°25'1 1.1
2016-Jan-31 15:32N 31°30' E 121°23'0 0.0
2016-Jan-31 14:32N 31°30' E 121°23'0 0.0
2016-Jan-31 13:26N 31°30' E 121°23'0 0.0
2016-Jan-31 12:32N 31°30' E 121°23'0 0.0
2016-Jan-31 11:32N 31°30' E 121°23'0 0.0
2016-Jan-31 10:32N 31°30' E 121°23'0 0.0
2016-Jan-31 09:29N 31°30' E 121°23'0 0.0
2016-Jan-31 08:32N 31°30' E 121°23'0 0.0
2016-Jan-31 07:32N 31°30' E 121°23'0 0.0
2016-Jan-31 06:32N 31°30' E 121°23'0 0.0
2016-Jan-31 05:32N 31°30' E 121°23'0 0.0
2016-Jan-31 04:32N 31°30' E 121°23'0 0.0
2016-Jan-31 03:32N 31°30' E 121°23'0 0.0
2016-Jan-31 02:32N 31°30' E 121°23'0 0.0
2016-Jan-31 01:32N 31°30' E 121°23'0 0.0
2016-Jan-31 00:26N 31°30' E 121°23'0 0.0
2016-Jan-30 23:32N 31°30' E 121°23'0 0.0
2016-Jan-30 22:32N 31°30' E 121°23'0 0.0
2016-Jan-30 21:32N 31°30' E 121°23'0 0.0
2016-Jan-30 20:32N 31°30' E 121°23'0 0.0
2016-Jan-30 19:32N 31°30' E 121°23'0 0.0
2016-Jan-30 18:29N 31°30' E 121°23'0 0.0
2016-Jan-30 17:29N 31°30' E 121°23'0 0.0
2016-Jan-30 16:32N 31°30' E 121°23'0 0.0
2016-Jan-30 15:32N 31°30' E 121°23'0 0.0
2016-Jan-30 14:32N 31°30' E 121°23'0 0.0
2016-Jan-30 13:32N 31°30' E 121°23'0 0.0
2016-Jan-30 12:32N 31°30' E 121°23'0 0.0
2016-Jan-30 11:32N 31°30' E 121°23'0 0.0
2016-Jan-30 10:32N 31°30' E 121°23'0 0.0
2016-Jan-30 09:32N 31°30' E 121°23'0 0.0
2016-Jan-30 08:32N 31°30' E 121°23'0 0.0
2016-Jan-30 07:32N 31°30' E 121°23'0 0.0
2016-Jan-30 06:32N 31°30' E 121°23'0 0.0
2016-Jan-30 05:29N 31°30' E 121°23'0 0.0
2016-Jan-30 04:29N 31°30' E 121°23'0 0.0
2016-Jan-30 03:32N 31°30' E 121°23'0 0.0
2016-Jan-30 02:32N 31°30' E 121°23'0 0.0
2016-Jan-30 01:32N 31°30' E 121°23'0 0.0
2016-Jan-30 00:32N 31°30' E 121°23'0 0.0
2016-Jan-29 23:32N 31°30' E 121°23'0 0.0
2016-Jan-29 22:32N 31°30' E 121°23'0 0.0
2016-Jan-29 21:32N 31°30' E 121°23'0 0.0
2016-Jan-29 20:32N 31°30' E 121°23'0 0.0
2016-Jan-29 19:32N 31°30' E 121°23'0 0.0
2016-Jan-29 18:32N 31°30' E 121°23'0 0.0
2016-Jan-29 17:32N 31°30' E 121°23'0 0.0
2016-Jan-29 16:32N 31°30' E 121°23'0 0.0
2016-Jan-29 15:32N 31°30' E 121°23'0 0.0
2016-Jan-29 14:32N 31°30' E 121°23'0 0.0
2016-Jan-29 13:32N 31°30' E 121°23'0 0.0
2016-Jan-29 12:20N 31°30' E 121°23'0 0.0
2016-Jan-29 11:32N 31°30' E 121°23'0 0.0
2016-Jan-29 10:32N 31°30' E 121°23'0 0.0
2016-Jan-29 09:33N 31°30' E 121°23'2 1.9
2016-Jan-29 08:33N 31°29' E 121°25'8 7.8
2016-Jan-29 07:32N 31°24' E 121°33'  

Dump ship's entire track history